Time;durP1;ratioP1;P1;durP2;ratioP2;P2;SDS_P1;SDS_P2;PMS_P1;PMS_P2;Temp;Humidity;BMP_temperature;BMP_pressure;BME280_temperature;BME280_humidity;BME280_pressure;Samples;Min_cycle;Max_cycle;Signal;HPM_P1;HPM_P2
2023/12/08 00:03:14;;;;;;;1.30;1.00;;;;;;;17.82;32.05;100551.88;16113330;19;131073;-44
2023/12/08 00:08:37;;;;;;;2.17;1.02;;;;;;;17.79;32.16;100540.47;16114262;19;130604;-43
2023/12/08 00:13:59;;;;;;;2.15;1.20;;;;;;;17.74;31.97;100535.69;16114744;19;130504;-42
2023/12/08 00:19:21;;;;;;;1.73;1.00;;;;;;;17.69;32.04;100519.81;16116010;19;129680;-45
2023/12/08 00:24:43;;;;;;;3.45;1.30;;;;;;;17.67;31.97;100510.09;16112853;19;130592;-43
2023/12/08 00:30:06;;;;;;;2.50;1.40;;;;;;;17.63;32.20;100509.78;16113599;19;130790;-46
2023/12/08 00:35:28;;;;;;;1.25;1.02;;;;;;;17.60;32.14;100510.28;16114571;19;129386;-44
2023/12/08 00:40:50;;;;;;;1.75;1.25;;;;;;;17.57;32.07;100501.63;16115004;19;130833;-45
2023/12/08 00:46:15;;;;;;;1.55;1.15;;;;;;;17.53;32.19;100482.75;16109465;19;129676;-46
2023/12/08 00:51:37;;;;;;;3.47;1.50;;;;;;;17.50;32.38;100472.16;16106178;19;129793;-42
2023/12/08 00:56:59;;;;;;;1.27;1.05;;;;;;;17.48;32.42;100467.97;16108556;19;129781;-49
2023/12/08 01:02:21;;;;;;;1.10;0.98;;;;;;;17.45;32.31;100458.25;16110144;19;131614;-44
2023/12/08 01:07:43;;;;;;;1.65;1.30;;;;;;;17.41;32.27;100445.19;16110901;19;130060;-44
2023/12/08 01:13:06;;;;;;;2.00;1.10;;;;;;;17.40;32.30;100447.09;16110874;19;131275;-44
2023/12/08 01:18:28;;;;;;;2.85;1.30;;;;;;;17.37;32.29;100442.06;16107035;19;129111;-42
2023/12/08 01:23:51;;;;;;;5.38;1.30;;;;;;;17.35;32.20;100447.03;16111513;19;131307;-42
2023/12/08 01:29:12;;;;;;;2.03;1.10;;;;;;;17.33;32.20;100440.91;16109494;19;129247;-43
2023/12/08 01:34:35;;;;;;;1.42;1.15;;;;;;;17.31;32.27;100434.78;16108647;19;129764;-44
2023/12/08 01:39:56;;;;;;;1.63;1.20;;;;;;;17.28;32.38;100425.06;16110079;19;130219;-43
2023/12/08 01:45:20;;;;;;;2.35;1.10;;;;;;;17.28;32.20;100413.16;16108197;19;131783;-43
2023/12/08 01:50:42;;;;;;;1.73;1.10;;;;;;;17.23;32.18;100406.44;16101675;19;130879;-44
2023/12/08 01:56:04;;;;;;;3.13;1.20;;;;;;;17.22;32.63;100424.13;16107550;19;129815;-45
2023/12/08 02:01:26;;;;;;;1.58;1.27;;;;;;;17.21;32.56;100430.75;16104540;19;131070;-42
2023/12/08 02:06:48;;;;;;;1.30;1.00;;;;;;;17.19;32.60;100416.34;16114461;19;129540;-44
2023/12/08 02:12:11;;;;;;;3.42;1.38;;;;;;;17.18;32.65;100427.63;16126138;19;129387;-42
2023/12/08 02:17:39;;;;;;;1.48;1.27;;;;;;;17.16;32.61;100450.00;16119190;19;130419;-42
2023/12/08 02:23:08;;;;;;;2.22;1.13;;;;;;;17.16;32.40;100458.28;16118271;19;131097;-44
2023/12/08 02:28:30;;;;;;;2.13;1.30;;;;;;;17.14;32.24;100454.94;16116364;19;130906;-45
2023/12/08 02:33:55;;;;;;;1.55;1.02;;;;;;;17.14;32.54;100448.56;16120652;19;130655;-45
2023/12/08 02:39:19;;;;;;;1.05;0.82;;;;;;;17.14;32.49;100434.75;16118633;19;130939;-47
2023/12/08 02:44:41;;;;;;;1.92;1.00;;;;;;;17.11;32.39;100436.06;16118048;19;130087;-47
2023/12/08 02:50:04;;;;;;;1.05;0.80;;;;;;;17.10;32.76;100434.41;16117140;19;130750;-45
2023/12/08 02:55:26;;;;;;;0.80;0.75;;;;;;;17.08;32.69;100442.13;16117767;19;130425;-43
2023/12/08 03:00:48;;;;;;;1.55;0.90;;;;;;;17.06;32.86;100450.63;16121131;19;131286;-42
2023/12/08 03:06:10;;;;;;;1.67;1.10;;;;;;;17.05;32.79;100448.97;16123113;19;130651;-42
2023/12/08 03:11:32;;;;;;;0.90;0.70;;;;;;;17.04;32.48;100424.34;16118567;19;132179;-43
2023/12/08 03:16:54;;;;;;;1.02;0.85;;;;;;;17.02;32.71;100396.97;16119012;19;130862;-48
2023/12/08 03:22:16;;;;;;;0.80;0.65;;;;;;;17.01;32.43;100402.72;16120489;19;130630;-42
2023/12/08 03:27:38;;;;;;;1.05;0.75;;;;;;;16.99;33.00;100418.72;16116399;19;129821;-44
2023/12/08 03:33:00;;;;;;;1.00;0.70;;;;;;;16.98;32.80;100400.47;16117947;19;133777;-45
2023/12/08 03:38:22;;;;;;;1.08;0.80;;;;;;;16.97;32.85;100420.91;16118499;19;129957;-42
2023/12/08 03:43:45;;;;;;;1.20;0.85;;;;;;;16.95;32.69;100412.84;16118419;19;130336;-48
2023/12/08 03:49:06;;;;;;;1.10;0.60;;;;;;;16.92;32.81;100400.38;16112084;19;130815;-44
2023/12/08 03:54:29;;;;;;;0.98;0.80;;;;;;;16.91;33.14;100401.47;16108374;19;129469;-42
2023/12/08 03:59:50;;;;;;;0.90;0.80;;;;;;;16.90;33.12;100394.25;16110942;19;130766;-46
2023/12/08 04:05:12;;;;;;;0.80;0.60;;;;;;;16.90;33.10;100393.44;16111577;19;130377;-44
2023/12/08 04:10:34;;;;;;;1.40;0.68;;;;;;;16.89;33.19;100388.97;16110137;19;131378;-45
2023/12/08 04:15:57;;;;;;;0.50;0.50;;;;;;;16.85;32.91;100394.16;16106449;19;129521;-46
2023/12/08 04:21:19;;;;;;;1.15;0.63;;;;;;;16.85;32.74;100393.31;16110166;19;130007;-45
2023/12/08 04:26:44;;;;;;;1.25;0.68;;;;;;;16.84;33.23;100403.53;16109006;19;132158;-46
2023/12/08 04:32:06;;;;;;;0.95;0.55;;;;;;;16.83;32.86;100384.44;16113718;19;131498;-43
2023/12/08 04:37:28;;;;;;;0.82;0.65;;;;;;;16.82;33.16;100399.31;16113607;19;130895;-43
2023/12/08 04:42:50;;;;;;;0.60;0.60;;;;;;;16.80;33.29;100383.00;16111701;19;130229;-50
2023/12/08 04:48:12;;;;;;;1.02;0.80;;;;;;;16.78;33.19;100396.22;16111798;19;130419;-48
2023/12/08 04:53:35;;;;;;;0.80;0.52;;;;;;;16.78;33.16;100404.50;16110636;19;130040;-46
2023/12/08 04:58:57;;;;;;;1.30;0.77;;;;;;;16.77;33.33;100405.59;16112081;19;129859;-49
2023/12/08 05:04:19;;;;;;;0.80;0.65;;;;;;;16.75;33.39;100388.44;16110567;19;130925;-44
2023/12/08 05:09:41;;;;;;;0.93;0.73;;;;;;;16.74;33.07;100392.28;16111422;19;129915;-45
2023/12/08 05:15:04;;;;;;;0.60;0.60;;;;;;;16.73;33.41;100390.63;16112256;19;129545;-42
2023/12/08 05:20:26;;;;;;;1.48;0.82;;;;;;;16.72;33.29;100397.22;16110867;19;131213;-42
2023/12/08 05:25:48;;;;;;;1.00;0.60;;;;;;;16.70;33.51;100397.44;16111499;19;130683;-44
2023/12/08 05:31:09;;;;;;;0.95;0.50;;;;;;;16.69;33.25;100401.31;16110101;19;130313;-46
2023/12/08 05:36:31;;;;;;;0.60;0.60;;;;;;;16.68;33.23;100393.28;16109314;19;129885;-44
2023/12/08 05:41:54;;;;;;;0.57;0.50;;;;;;;16.67;33.58;100397.13;16106290;19;129663;-42
2023/12/08 05:47:15;;;;;;;2.05;0.60;;;;;;;16.66;33.56;100388.00;16111553;19;131726;-41
2023/12/08 05:52:37;;;;;;;1.05;0.50;;;;;;;16.66;33.48;100398.16;16105160;19;131079;-43
2023/12/08 05:57:59;;;;;;;0.63;0.60;;;;;;;16.64;33.61;100403.94;16108388;19;129597;-46
2023/12/08 06:03:21;;;;;;;1.00;0.60;;;;;;;16.62;33.62;100392.31;16103177;19;133182;-46
2023/12/08 06:08:43;;;;;;;0.90;0.60;;;;;;;16.62;33.52;100412.47;16106123;19;129295;-43
2023/12/08 06:14:06;;;;;;;1.17;0.68;;;;;;;16.63;33.69;100430.72;16106875;19;129935;-44
2023/12/08 06:19:28;;;;;;;0.82;0.63;;;;;;;16.63;33.55;100429.88;16108906;19;129549;-41
2023/12/08 06:24:50;;;;;;;0.85;0.68;;;;;;;16.62;33.33;100422.69;16105148;19;131022;-44
2023/12/08 06:30:13;;;;;;;8.55;0.70;;;;;;;16.62;33.58;100437.31;16099988;19;129717;-44
2023/12/08 06:35:35;;;;;;;1.70;0.90;;;;;;;16.62;33.64;100439.25;16105451;19;130855;-57
2023/12/08 06:40:57;;;;;;;3.25;0.70;;;;;;;16.68;34.04;100440.22;16105380;19;129601;-49
2023/12/08 06:46:19;;;;;;;2.00;0.90;;;;;;;16.69;33.87;100450.19;16105495;19;130953;-52
2023/12/08 06:51:41;;;;;;;3.30;0.93;;;;;;;16.70;33.92;100447.19;16112394;19;130561;-55
2023/12/08 06:57:03;;;;;;;1.38;0.80;;;;;;;16.70;33.82;100463.75;16119024;19;131390;-49
2023/12/08 07:02:25;;;;;;;1.35;0.70;;;;;;;16.70;33.72;100473.97;16122206;19;130606;-50
2023/12/08 07:07:47;;;;;;;3.78;0.93;;;;;;;16.69;33.87;100477.81;16117900;19;131110;-50
2023/12/08 07:13:09;;;;;;;1.17;0.77;;;;;;;16.67;33.99;100491.88;16118883;19;129911;-48
2023/12/08 07:18:32;;;;;;;1.55;0.80;;;;;;;16.67;33.79;100494.63;16116155;19;129476;-52
2023/12/08 07:23:54;;;;;;;2.10;0.80;;;;;;;16.66;33.97;100494.84;16118351;19;129840;-51
2023/12/08 07:29:17;;;;;;;1.75;0.70;;;;;;;16.64;34.14;100497.84;16122002;19;129833;-54
2023/12/08 07:34:38;;;;;;;2.58;1.00;;;;;;;16.63;34.07;100502.50;16119110;19;129570;-55
2023/12/08 07:40:01;;;;;;;1.35;0.70;;;;;;;16.62;34.44;100503.59;16118747;19;132166;-52
2023/12/08 07:45:22;;;;;;;2.00;0.70;;;;;;;16.60;34.43;100513.22;16120377;19;129308;-50
2023/12/08 07:50:45;;;;;;;3.00;0.90;;;;;;;16.59;34.08;100528.97;16118776;19;129945;-53
2023/12/08 07:56:08;;;;;;;1.50;0.70;;;;;;;16.57;34.14;100527.50;16116715;19;130682;-51
2023/12/08 08:01:31;;;;;;;1.52;0.70;;;;;;;16.56;34.31;100545.16;16112120;19;129659;-54
2023/12/08 08:06:53;;;;;;;1.67;0.88;;;;;;;16.54;34.18;100536.28;16110782;19;130830;-54
2023/12/08 08:12:15;;;;;;;1.27;0.73;;;;;;;16.53;34.61;100546.47;16113640;19;135804;-54
2023/12/08 08:17:37;;;;;;;1.80;0.70;;;;;;;16.51;34.42;100548.63;16114120;19;130088;-54
2023/12/08 08:22:59;;;;;;;1.95;0.90;;;;;;;16.50;34.28;100551.66;16119880;19;130849;-53
2023/12/08 08:28:21;;;;;;;1.73;0.90;;;;;;;16.49;34.22;100563.78;16116877;19;129687;-52
2023/12/08 08:33:44;;;;;;;1.20;0.73;;;;;;;16.46;34.36;100560.41;16115229;19;129723;-54
2023/12/08 08:39:06;;;;;;;1.10;0.80;;;;;;;16.45;34.64;100566.19;16113912;19;131022;-52
2023/12/08 08:44:28;;;;;;;1.77;0.70;;;;;;;16.45;34.61;100574.47;16111905;19;130067;-52
2023/12/08 08:49:50;;;;;;;1.15;0.80;;;;;;;16.43;34.82;100573.88;16117356;19;130903;-54
2023/12/08 08:55:12;;;;;;;1.80;0.80;;;;;;;16.41;34.96;100587.91;16115774;19;130938;-51
2023/12/08 09:00:34;;;;;;;2.10;0.80;;;;;;;16.41;34.90;100598.09;16109204;19;129382;-53
2023/12/08 09:05:56;;;;;;;1.30;0.60;;;;;;;16.40;34.48;100590.91;16114906;19;129775;-54
2023/12/08 09:11:18;;;;;;;3.20;0.90;;;;;;;16.39;34.93;100600.25;16115761;19;129832;-52
2023/12/08 09:16:40;;;;;;;1.23;0.80;;;;;;;16.37;34.63;100607.97;16117091;19;132584;-56
2023/12/08 09:22:03;;;;;;;1.48;0.70;;;;;;;16.37;35.09;100600.50;16109798;19;129529;-54
2023/12/08 09:27:25;;;;;;;3.60;0.90;;;;;;;16.36;34.88;100606.28;16112964;19;132167;-55
2023/12/08 09:32:50;;;;;;;5.18;0.90;;;;;;;16.36;34.95;100611.81;16107258;19;129657;-55
2023/12/08 09:38:12;;;;;;;3.97;0.90;;;;;;;16.34;34.86;100614.78;16104295;19;129830;-54
2023/12/08 09:43:57;;;;;;;2.30;1.00;;;;;;;16.36;34.86;100600.75;16104946;19;129676;-54
2023/12/08 09:49:40;;;;;;;2.33;0.90;;;;;;;16.36;34.93;100611.81;16108000;19;129226;-55
2023/12/08 09:55:04;;;;;;;2.83;1.00;;;;;;;16.33;35.15;100618.63;16110238;19;130849;-48
2023/12/08 10:00:30;;;;;;;1.90;0.90;;;;;;;16.34;34.87;100622.25;16110699;19;131259;-55
2023/12/08 10:05:55;;;;;;;2.17;0.80;;;;;;;16.34;35.17;100630.53;16109708;19;129998;-52
2023/12/08 10:11:17;;;;;;;3.87;1.00;;;;;;;16.34;35.28;100627.75;16110634;19;129611;-53
2023/12/08 10:16:39;;;;;;;2.63;0.90;;;;;;;16.31;35.13;100610.59;16112495;19;129900;-53
2023/12/08 10:22:01;;;;;;;1.83;1.00;;;;;;;16.30;35.26;100625.47;16108326;19;130069;-52
2023/12/08 10:27:24;;;;;;;4.15;1.15;;;;;;;16.30;35.21;100628.22;16116143;19;131364;-54
2023/12/08 10:32:46;;;;;;;4.00;1.17;;;;;;;16.27;35.64;100636.97;16117255;19;130058;-54
2023/12/08 10:38:09;;;;;;;3.10;1.40;;;;;;;16.37;35.33;100638.34;16120322;19;129368;-54
2023/12/08 10:43:33;;;;;;;2.65;1.40;;;;;;;16.46;35.24;100626.69;16120782;19;129474;-53
2023/12/08 10:48:56;;;;;;;2.03;1.15;;;;;;;16.62;34.95;100632.56;16119363;19;131971;-48
2023/12/08 10:54:19;;;;;;;3.75;1.30;;;;;;;16.84;34.89;100641.16;16122185;19;130372;-51
2023/12/08 10:59:46;;;;;;;5.70;1.15;;;;;;;17.08;34.81;100643.88;16122464;19;129729;-51
2023/12/08 11:05:10;;;;;;;2.45;1.10;;;;;;;17.28;34.64;100656.44;16121849;19;130385;-52
2023/12/08 11:10:37;;;;;;;1.33;0.90;;;;;;;17.36;34.56;100647.75;16120313;19;130064;-52
2023/12/08 11:16:14;;;;;;;3.20;1.20;;;;;;;17.39;34.42;100641.75;16123456;19;129868;-53
2023/12/08 11:21:36;;;;;;;2.83;1.05;;;;;;;17.35;34.51;100640.59;16120123;19;129126;-52
2023/12/08 11:27:07;;;;;;;2.20;1.20;;;;;;;17.31;34.34;100647.69;16120329;19;130985;-54
2023/12/08 11:32:41;;;;;;;2.60;1.05;;;;;;;17.23;34.38;100644.19;16120186;19;129578;-52
2023/12/08 11:38:03;;;;;;;3.38;1.40;;;;;;;17.15;34.36;100641.81;16115899;19;129699;-50
2023/12/08 11:43:26;;;;;;;2.75;1.02;;;;;;;17.08;34.69;100643.88;16117330;19;130281;-53
2023/12/08 11:48:52;;;;;;;2.17;1.00;;;;;;;17.01;34.82;100645.91;16117411;19;130700;-51
2023/12/08 11:54:15;;;;;;;4.18;1.40;;;;;;;16.95;34.87;100655.19;16117641;19;130788;-51
2023/12/08 11:59:42;;;;;;;2.72;1.33;;;;;;;16.89;34.67;100660.59;16116638;19;130926;-54
2023/12/08 12:05:04;;;;;;;2.50;1.10;;;;;;;16.83;34.62;100650.50;16115750;19;131519;-48
2023/12/08 12:10:32;;;;;;;4.78;1.10;;;;;;;16.80;34.78;100656.50;16113936;19;130145;-53
2023/12/08 12:15:55;;;;;;;2.10;1.10;;;;;;;16.76;35.19;100663.59;16117738;19;129944;-52
2023/12/08 12:21:18;;;;;;;4.00;1.50;;;;;;;16.72;34.90;100665.16;16117609;19;129758;-47
2023/12/08 12:26:40;;;;;;;2.80;1.27;;;;;;;16.69;35.23;100660.94;16116409;19;132700;-47
2023/12/08 12:32:05;;;;;;;3.38;1.73;;;;;;;16.67;35.20;100657.59;16116361;19;129880;-52
2023/12/08 12:37:27;;;;;;;2.37;1.20;;;;;;;16.63;35.01;100671.00;16114028;19;129954;-53
2023/12/08 12:42:49;;;;;;;4.75;1.23;;;;;;;16.63;34.86;100681.22;16112712;19;129536;-51
2023/12/08 12:48:12;;;;;;;2.35;1.23;;;;;;;16.59;35.27;100675.34;16114999;19;130611;-50
2023/12/08 12:53:45;;;;;;;4.28;1.48;;;;;;;16.59;35.41;100683.63;16114985;19;129272;-53
2023/12/08 12:59:10;;;;;;;3.80;1.20;;;;;;;16.55;35.06;100690.69;16116017;19;129768;-57
2023/12/08 13:04:32;;;;;;;2.57;1.10;;;;;;;16.52;35.20;100698.63;16113298;19;129575;-52
2023/12/08 13:09:56;;;;;;;2.22;1.30;;;;;;;16.52;35.30;100698.63;16111397;19;129780;-52
2023/12/08 13:15:18;;;;;;;2.75;1.38;;;;;;;16.49;35.03;100693.56;16113570;19;129604;-53
2023/12/08 13:20:40;;;;;;;2.17;1.02;;;;;;;16.48;35.33;100692.72;16110666;19;129919;-49
2023/12/08 13:26:04;;;;;;;2.28;1.27;;;;;;;16.46;35.22;100712.28;16112015;19;129646;-48
2023/12/08 13:31:26;;;;;;;2.47;1.20;;;;;;;16.45;35.62;100726.34;16109647;19;129192;-52
2023/12/08 13:36:49;;;;;;;3.00;1.48;;;;;;;16.44;35.76;100730.16;16107188;19;131289;-53
2023/12/08 13:42:11;;;;;;;2.45;0.98;;;;;;;16.42;35.65;100740.59;16108054;19;129695;-52
2023/12/08 13:47:33;;;;;;;2.80;1.27;;;;;;;16.41;35.42;100741.69;16111203;19;130750;-51
2023/12/08 13:52:55;;;;;;;3.22;1.40;;;;;;;16.39;35.65;100750.22;16109296;19;129384;-53
2023/12/08 13:58:16;;;;;;;3.78;1.40;;;;;;;16.39;35.45;100754.88;16109187;19;129564;-48
2023/12/08 14:03:38;;;;;;;3.38;1.20;;;;;;;16.38;35.56;100742.13;16121641;19;129888;-50
2023/12/08 14:09:03;;;;;;;2.73;1.20;;;;;;;16.37;35.68;100748.78;16125124;19;131179;-51
2023/12/08 14:14:25;;;;;;;3.75;1.30;;;;;;;16.37;35.78;100746.84;16127231;19;129718;-50
2023/12/08 14:19:47;;;;;;;2.85;1.17;;;;;;;16.36;35.57;100749.84;16125328;19;130916;-52
2023/12/08 14:25:09;;;;;;;2.08;1.10;;;;;;;16.35;35.68;100760.03;16121418;19;131091;-48
2023/12/08 14:30:31;;;;;;;2.35;1.40;;;;;;;16.34;35.65;100768.56;16121199;19;129589;-52
2023/12/08 14:35:53;;;;;;;1.95;1.15;;;;;;;16.35;35.42;100770.25;16125677;19;129874;-51
2023/12/08 14:41:15;;;;;;;2.47;1.13;;;;;;;16.34;35.54;100769.38;16123617;19;129996;-47
2023/12/08 14:46:37;;;;;;;2.45;1.20;;;;;;;16.34;35.90;100774.06;16127480;19;129968;-49
2023/12/08 14:51:59;;;;;;;2.67;0.80;;;;;;;16.32;35.91;100766.88;16122420;19;129613;-51
2023/12/08 14:57:21;;;;;;;2.03;1.00;;;;;;;16.31;36.06;100767.94;16118672;19;129493;-49
2023/12/08 15:02:44;;;;;;;3.45;1.40;;;;;;;16.30;35.99;100788.34;16122953;19;131176;-52
2023/12/08 15:08:06;;;;;;;2.70;1.52;;;;;;;16.30;35.69;100799.38;16117150;19;129873;-50
2023/12/08 15:13:28;;;;;;;2.40;1.27;;;;;;;16.29;35.97;100797.69;16120319;19;129636;-47
2023/12/08 15:18:50;;;;;;;2.63;1.00;;;;;;;16.28;35.86;100803.47;16120577;19;130606;-52
2023/12/08 15:24:12;;;;;;;2.20;1.17;;;;;;;16.27;36.07;100801.78;16119631;19;129375;-48
2023/12/08 15:29:34;;;;;;;2.78;1.02;;;;;;;16.26;35.62;100817.47;16119201;19;131192;-47
2023/12/08 15:34:57;;;;;;;1.88;1.00;;;;;;;16.25;35.77;100815.78;16115625;19;130036;-50
2023/12/08 15:40:19;;;;;;;2.05;1.00;;;;;;;16.24;36.24;100833.47;16115417;19;130387;-49
2023/12/08 15:45:41;;;;;;;1.95;1.00;;;;;;;16.23;36.16;100829.00;16116767;19;130838;-51
2023/12/08 15:51:11;;;;;;;3.15;1.17;;;;;;;16.22;36.01;100841.13;16114282;19;131073;-49
2023/12/08 15:56:37;;;;;;;2.85;1.10;;;;;;;16.23;36.49;100845.56;16116795;19;131313;-46
2023/12/08 16:01:59;;;;;;;1.90;1.02;;;;;;;16.44;35.90;100841.44;16116617;19;129908;-54
2023/12/08 16:07:23;;;;;;;1.92;1.00;;;;;;;16.93;35.58;100832.25;16111025;19;130786;-49
2023/12/08 16:12:45;;;;;;;2.45;1.08;;;;;;;17.54;35.21;100838.50;16113825;19;131229;-51
2023/12/08 16:18:07;;;;;;;1.73;0.93;;;;;;;18.11;34.31;100847.19;16118126;19;129366;-49
2023/12/08 16:23:30;;;;;;;2.47;1.02;;;;;;;18.57;33.86;100862.00;16111767;19;130554;-48
2023/12/08 16:28:52;;;;;;;3.30;1.10;;;;;;;18.89;33.41;100855.09;16114030;19;132001;-46
2023/12/08 16:34:14;;;;;;;1.80;1.00;;;;;;;19.13;33.06;100861.34;16112851;19;129535;-48
2023/12/08 16:39:37;;;;;;;4.68;1.13;;;;;;;19.27;33.11;100859.09;16112254;19;130775;-57
2023/12/08 16:44:59;;;;;;;1.63;0.70;;;;;;;19.27;33.33;100856.31;16114424;19;131264;-49
2023/12/08 16:50:23;;;;;;;6.57;1.02;;;;;;;19.19;33.53;100853.94;16112078;19;130602;-50
2023/12/08 16:55:46;;;;;;;2.70;1.10;;;;;;;19.06;33.66;100857.88;16111279;19;129239;-47
2023/12/08 17:01:08;;;;;;;4.65;1.13;;;;;;;18.89;33.40;100863.41;16112624;19;129464;-50
2023/12/08 17:06:30;;;;;;;3.53;1.00;;;;;;;18.74;33.92;100867.56;16110615;19;130635;-46
2023/12/08 17:11:52;;;;;;;5.32;1.08;;;;;;;18.62;34.01;100866.78;16111878;19;129662;-49
2023/12/08 17:17:14;;;;;;;4.35;1.30;;;;;;;18.48;34.23;100874.56;16107178;19;130095;-47
2023/12/08 17:22:39;;;;;;;4.50;1.10;;;;;;;18.46;34.46;100872.00;16107602;19;130408;-47
2023/12/08 17:28:01;;;;;;;4.22;1.05;;;;;;;18.53;34.09;100871.03;16108288;19;130536;-46
2023/12/08 17:33:23;;;;;;;4.18;1.00;;;;;;;18.63;34.19;100865.69;16108583;19;130617;-50
2023/12/08 17:38:45;;;;;;;8.32;1.33;;;;;;;18.76;33.94;100853.47;16101499;19;131188;-48
2023/12/08 17:44:07;;;;;;;4.78;1.92;;;;;;;19.01;34.13;100866.94;16104007;19;129509;-53
2023/12/08 17:49:30;;;;;;;4.28;1.52;;;;;;;19.31;34.11;100871.38;16100964;19;129994;-46
2023/12/08 17:54:53;;;;;;;3.72;1.20;;;;;;;19.66;33.27;100872.16;16104878;19;130043;-46
2023/12/08 18:00:16;;;;;;;7.70;1.40;;;;;;;19.94;32.84;100882.28;16107598;19;135180;-49
2023/12/08 18:05:38;;;;;;;4.32;1.10;;;;;;;20.17;32.93;100880.41;16102453;19;129879;-50
2023/12/08 18:11:00;;;;;;;4.57;1.30;;;;;;;20.39;32.71;100879.56;16102072;19;129561;-47
2023/12/08 18:16:26;;;;;;;7.45;1.60;;;;;;;20.59;32.47;100890.91;16106396;19;129733;-49
2023/12/08 18:21:49;;;;;;;3.63;1.08;;;;;;;20.79;31.96;100895.06;16105383;19;129460;-46
2023/12/08 18:27:11;;;;;;;3.20;1.20;;;;;;;20.88;32.07;100893.47;16105419;19;131140;-44
2023/12/08 18:32:48;;;;;;;2.90;1.40;;;;;;;20.85;32.30;100888.44;16104596;19;131325;-47
2023/12/08 18:38:10;;;;;;;4.45;1.38;;;;;;;20.74;32.12;100897.75;16105024;19;129715;-48
2023/12/08 18:43:32;;;;;;;4.95;1.38;;;;;;;20.55;32.06;100909.22;16102685;19;129736;-49
2023/12/08 18:48:57;;;;;;;4.70;1.38;;;;;;;20.38;32.44;100900.94;16111771;19;130711;-46
2023/12/08 18:54:20;;;;;;;4.22;1.35;;;;;;;20.18;32.45;100898.75;16109178;19;131243;-46
2023/12/08 18:59:42;;;;;;;5.78;1.27;;;;;;;20.03;32.78;100909.66;16121848;19;129413;-45
2023/12/08 19:05:05;;;;;;;4.07;1.42;;;;;;;19.85;33.18;100903.25;16123771;19;129730;-44
2023/12/08 19:10:26;;;;;;;2.65;1.20;;;;;;;19.72;33.27;100910.03;16118367;19;129689;-48
2023/12/08 19:15:50;;;;;;;4.85;1.40;;;;;;;19.59;33.34;100910.38;16117329;19;130570;-44
2023/12/08 19:21:12;;;;;;;2.35;1.00;;;;;;;19.49;33.84;100916.59;16116018;19;130160;-47
2023/12/08 19:26:35;;;;;;;3.08;1.30;;;;;;;19.40;33.71;100921.72;16100701;19;129690;-47
2023/12/08 19:31:57;;;;;;;2.78;1.30;;;;;;;19.42;33.69;100927.03;16113328;19;129758;-46
2023/12/08 19:37:19;;;;;;;4.80;1.27;;;;;;;19.49;33.46;100933.22;16112602;19;130526;-48
2023/12/08 19:42:40;;;;;;;6.20;1.30;;;;;;;19.56;33.40;100922.81;16118615;19;133893;-45
2023/12/08 19:48:03;;;;;;;3.42;1.30;;;;;;;19.64;33.57;100914.06;16114786;19;131620;-49
2023/12/08 19:53:25;;;;;;;2.65;1.25;;;;;;;19.74;33.69;100921.72;16112527;19;131460;-53
2023/12/08 19:58:47;;;;;;;2.30;1.50;;;;;;;19.79;33.57;100916.22;16111948;19;129583;-53
2023/12/08 20:04:09;;;;;;;2.90;1.23;;;;;;;19.88;33.63;100918.59;16115418;19;130013;-51
2023/12/08 20:09:31;;;;;;;2.88;1.50;;;;;;;19.89;33.25;100920.25;16119579;19;129499;-52
2023/12/08 20:14:54;;;;;;;4.90;1.58;;;;;;;19.97;33.12;100920.66;16109713;19;130621;-49
2023/12/08 20:20:16;;;;;;;3.78;1.50;;;;;;;20.01;33.09;100922.97;16108109;19;129263;-52
2023/12/08 20:25:38;;;;;;;4.05;1.20;;;;;;;19.97;33.16;100922.59;16106324;19;130057;-50
2023/12/08 20:31:00;;;;;;;4.15;1.60;;;;;;;19.88;33.25;100929.69;16107891;19;135386;-50
2023/12/08 20:36:23;;;;;;;3.47;1.63;;;;;;;19.77;33.42;100932.28;16107401;19;130804;-50
2023/12/08 20:41:49;;;;;;;12.35;1.90;;;;;;;19.67;33.82;100929.34;16102087;19;130319;-49
2023/12/08 20:47:12;;;;;;;8.88;1.88;;;;;;;19.74;34.25;100934.72;16100581;19;130845;-50
2023/12/08 20:52:33;;;;;;;37.38;3.63;;;;;;;19.81;34.32;100940.97;16101818;19;129443;-45
2023/12/08 20:57:55;;;;;;;33.85;3.83;;;;;;;19.82;34.65;100931.53;16104335;19;131336;-47
2023/12/08 21:03:18;;;;;;;28.98;2.97;;;;;;;19.90;35.01;100942.22;16105998;19;132306;-52
2023/12/08 21:08:40;;;;;;;18.27;2.67;;;;;;;20.07;34.81;100941.34;16109080;19;129729;-50
2023/12/08 21:14:05;;;;;;;22.70;3.10;;;;;;;20.12;35.24;100938.66;16101822;19;132073;-45
2023/12/08 21:19:27;;;;;;;16.75;2.75;;;;;;;20.13;34.91;100943.13;16107127;19;129360;-44
2023/12/08 21:24:49;;;;;;;22.52;2.88;;;;;;;20.15;35.23;100946.50;16104235;19;129945;-45
2023/12/08 21:30:12;;;;;;;20.10;2.95;;;;;;;20.13;35.67;100943.94;16100640;19;132498;-54
2023/12/08 21:35:34;;;;;;;22.40;3.20;;;;;;;20.14;35.64;100942.03;16105972;19;130372;-45
2023/12/08 21:40:56;;;;;;;12.38;2.58;;;;;;;20.10;35.77;100944.47;16102806;19;130914;-45
2023/12/08 21:46:18;;;;;;;12.38;2.15;;;;;;;20.13;35.83;100948.69;16101367;19;129701;-51
2023/12/08 21:51:40;;;;;;;18.90;2.58;;;;;;;20.19;35.80;100952.38;16101618;19;132786;-49
2023/12/08 21:57:02;;;;;;;14.25;2.40;;;;;;;20.23;35.88;100942.44;16103985;19;129684;-45
2023/12/08 22:02:24;;;;;;;16.50;3.00;;;;;;;20.27;35.53;100950.00;16104307;19;130156;-53
2023/12/08 22:07:46;;;;;;;13.27;2.08;;;;;;;20.31;35.94;100949.50;16100200;19;130056;-48
2023/12/08 22:13:08;;;;;;;14.18;2.30;;;;;;;20.33;35.73;100956.47;16100039;19;130171;-44
2023/12/08 22:18:30;;;;;;;11.50;1.95;;;;;;;20.36;35.48;100963.44;16104254;19;131212;-44
2023/12/08 22:23:52;;;;;;;14.30;2.78;;;;;;;20.37;35.53;100965.13;16112716;19;129844;-50
2023/12/08 22:29:14;;;;;;;10.85;2.13;;;;;;;20.37;35.98;100970.66;16115441;19;130173;-51
2023/12/08 22:34:36;;;;;;;17.80;2.50;;;;;;;20.34;35.96;100976.72;16118586;19;130466;-49
2023/12/08 22:39:58;;;;;;;9.88;2.15;;;;;;;20.32;35.75;100978.91;16114845;19;131639;-46
2023/12/08 22:45:21;;;;;;;10.68;2.42;;;;;;;20.30;35.52;100976.41;16117003;19;132896;-46
2023/12/08 22:50:44;;;;;;;16.25;2.25;;;;;;;20.27;36.02;100976.91;16114760;19;130383;-47
2023/12/08 22:56:12;;;;;;;8.43;2.10;;;;;;;20.24;35.76;100985.78;16118908;19;131079;-48
2023/12/08 23:01:34;;;;;;;9.77;1.83;;;;;;;20.22;35.99;100986.03;16113059;19;130819;-47
2023/12/08 23:06:56;;;;;;;18.33;2.72;;;;;;;20.21;35.59;100980.72;16111715;19;131534;-49
2023/12/08 23:12:18;;;;;;;10.55;2.25;;;;;;;20.09;35.46;100986.38;16100597;19;132590;-52
2023/12/08 23:17:41;;;;;;;13.60;2.80;;;;;;;19.98;35.81;100988.16;16110522;19;130433;-47
2023/12/08 23:23:03;;;;;;;9.10;2.03;;;;;;;19.87;35.74;101000.19;16117813;19;130004;-49
2023/12/08 23:28:24;;;;;;;10.73;1.98;;;;;;;19.76;35.69;101007.50;16114480;19;129457;-48
2023/12/08 23:33:46;;;;;;;7.85;1.77;;;;;;;19.63;35.84;101017.84;16111715;19;133607;-45
2023/12/08 23:39:09;;;;;;;6.78;1.77;;;;;;;19.51;35.83;101014.28;16112902;19;129259;-48
2023/12/08 23:44:32;;;;;;;14.32;2.35;;;;;;;19.42;35.90;101015.81;16117876;19;130920;-48
2023/12/08 23:49:54;;;;;;;5.88;1.80;;;;;;;19.30;35.90;101011.16;16107208;19;131646;-49
2023/12/08 23:55:16;;;;;;;10.60;2.58;;;;;;;19.24;36.39;101025.19;16116888;19;129643;-49
